Time;durP1;ratioP1;P1;durP2;ratioP2;P2;SDS_P1;SDS_P2;PMS_P1;PMS_P2;Temp;Humidity;BMP_temperature;BMP_pressure;BME280_temperature;BME280_humidity;BME280_pressure;Samples;Min_cycle;Max_cycle;Signal;HPM_P1;HPM_P2
2024/02/10 00:04:56;;;;;;;7.67;2.33;;;;;;;16.25;57.61;98359.03;10369518;28;20079;-61
2024/02/10 00:09:56;;;;;;;5.30;2.65;;;;;;;16.24;57.70;98363.63;10392195;28;20655;-61
2024/02/10 00:14:58;;;;;;;4.35;2.08;;;;;;;16.24;58.25;98352.91;10371852;28;20030;-61
2024/02/10 00:19:59;;;;;;;3.60;1.88;;;;;;;16.23;57.61;98359.38;10368436;28;20021;-61
2024/02/10 00:24:59;;;;;;;12.35;3.00;;;;;;;16.23;57.72;98356.72;10367347;28;20370;-60
2024/02/10 00:30:03;;;;;;;6.55;2.05;;;;;;;16.23;57.74;98350.59;10370758;28;20026;-61
2024/02/10 00:35:04;;;;;;;3.67;1.52;;;;;;;16.23;58.69;98353.25;10390189;28;20025;-60
2024/02/10 00:40:06;;;;;;;3.60;1.75;;;;;;;16.21;58.67;98350.91;10366127;28;20021;-61
2024/02/10 00:45:07;;;;;;;6.82;1.90;;;;;;;16.22;57.37;98357.03;10367813;28;20389;-61
2024/02/10 00:50:07;;;;;;;3.90;1.83;;;;;;;16.20;58.19;98352.00;10366475;28;20057;-61
2024/02/10 00:55:08;;;;;;;3.83;1.75;;;;;;;16.20;58.63;98356.59;10376298;28;20080;-60
2024/02/10 01:00:11;;;;;;;3.23;2.27;;;;;;;16.20;58.45;98352.00;10354355;28;20029;-61
2024/02/10 01:05:12;;;;;;;3.28;1.75;;;;;;;16.20;57.12;98356.59;10367417;28;20691;-61
2024/02/10 01:10:12;;;;;;;5.97;2.30;;;;;;;16.18;58.28;98359.59;10391724;28;20087;-61
2024/02/10 01:15:13;;;;;;;3.25;1.88;;;;;;;16.18;57.51;98366.84;10367515;28;20080;-60
2024/02/10 01:20:16;;;;;;;4.13;1.98;;;;;;;16.18;57.52;98358.81;10381139;28;20025;-61
2024/02/10 01:25:16;;;;;;;3.83;1.73;;;;;;;16.17;57.28;98355.38;10407700;28;20492;-61
2024/02/10 01:30:20;;;;;;;2.75;1.50;;;;;;;16.18;57.96;98359.59;10402798;28;20109;-60
2024/02/10 01:35:20;;;;;;;3.15;1.88;;;;;;;16.17;58.85;98363.38;10378237;28;20037;-61
2024/02/10 01:40:21;;;;;;;3.67;1.70;;;;;;;16.17;57.63;98366.06;10365434;28;20477;-61
2024/02/10 01:45:21;;;;;;;5.07;2.33;;;;;;;16.16;58.00;98366.41;10365658;28;20389;-60
2024/02/10 01:50:21;;;;;;;3.27;1.50;;;;;;;16.16;58.65;98372.53;10365127;28;20293;-61
2024/02/10 01:55:23;;;;;;;3.90;1.73;;;;;;;16.16;58.51;98369.06;10365388;28;20288;-61
2024/02/10 02:00:25;;;;;;;3.45;1.58;;;;;;;16.15;59.50;98375.53;10359790;28;20022;-61
2024/02/10 02:05:27;;;;;;;2.97;1.73;;;;;;;16.13;59.24;98361.72;10364726;28;20025;-61
2024/02/10 02:10:27;;;;;;;3.92;2.28;;;;;;;16.13;58.91;98364.41;10377369;28;20081;-61
2024/02/10 02:15:29;;;;;;;2.30;1.53;;;;;;;16.13;58.39;98370.53;10380267;28;20100;-61
2024/02/10 02:20:30;;;;;;;3.05;1.63;;;;;;;16.12;57.69;98368.19;10405218;28;20318;-61
2024/02/10 02:25:34;;;;;;;3.90;1.92;;;;;;;16.11;58.28;98367.41;10409011;28;20505;-61
2024/02/10 02:30:35;;;;;;;3.08;2.17;;;;;;;16.11;59.25;98358.63;10407709;28;20033;-61
2024/02/10 02:35:38;;;;;;;3.17;1.70;;;;;;;16.10;57.83;98368.50;10373014;28;20026;-60
2024/02/10 02:40:42;;;;;;;5.15;1.85;;;;;;;16.09;57.60;98365.06;10371097;28;20504;-61
2024/02/10 02:45:42;;;;;;;3.00;1.73;;;;;;;16.11;58.12;98359.41;10372311;28;20034;-61
2024/02/10 02:50:46;;;;;;;3.63;1.80;;;;;;;16.09;58.62;98346.34;10371702;28;20033;-61
2024/02/10 02:55:47;;;;;;;2.65;1.50;;;;;;;16.07;58.52;98348.56;10372185;28;20083;-61
2024/02/10 03:00:47;;;;;;;2.72;1.40;;;;;;;16.07;59.09;98345.91;10370184;28;20072;-62
2024/02/10 03:05:48;;;;;;;2.88;1.48;;;;;;;16.07;57.73;98345.13;10372639;28;20033;-60
2024/02/10 03:10:48;;;;;;;3.00;1.50;;;;;;;16.06;58.02;98347.03;10396304;28;20042;-61
2024/02/10 03:15:50;;;;;;;2.67;1.30;;;;;;;16.06;57.89;98341.69;10402954;28;20284;-61
2024/02/10 03:20:50;;;;;;;3.75;2.38;;;;;;;16.05;57.88;98331.31;10411844;28;20029;-61
2024/02/10 03:25:59;;;;;;;1.93;1.23;;;;;;;16.05;58.20;98334.00;10411955;28;20029;-62
2024/02/10 03:31:02;;;;;;;4.35;1.88;;;;;;;16.04;59.05;98321.75;10401748;28;20379;-61
2024/02/10 03:36:03;;;;;;;2.53;1.30;;;;;;;16.03;58.60;98318.31;10368971;28;20104;-61
2024/02/10 03:41:03;;;;;;;3.88;1.20;;;;;;;16.03;58.71;98325.53;10370626;28;20108;-61
2024/02/10 03:46:04;;;;;;;2.53;1.75;;;;;;;16.03;58.22;98323.66;10369921;28;20033;-60
2024/02/10 03:51:04;;;;;;;1.67;1.20;;;;;;;16.00;58.66;98327.00;10381926;28;20486;-61
2024/02/10 03:56:06;;;;;;;2.60;1.40;;;;;;;16.01;58.62;98330.44;10398597;28;20287;-61
2024/02/10 04:01:13;;;;;;;3.25;1.95;;;;;;;16.01;57.91;98328.56;10408675;28;20528;-61
2024/02/10 04:06:17;;;;;;;1.60;1.05;;;;;;;16.00;59.11;98345.72;10408848;28;20025;-61
2024/02/10 04:11:17;;;;;;;2.03;1.30;;;;;;;16.00;58.49;98350.28;10387064;28;20536;-61
2024/02/10 04:16:17;;;;;;;2.35;1.25;;;;;;;15.98;59.08;98345.28;10368952;28;20021;-61
2024/02/10 04:21:18;;;;;;;1.95;1.30;;;;;;;15.98;58.69;98345.28;10367441;28;20044;-61
2024/02/10 04:26:18;;;;;;;2.67;1.10;;;;;;;15.98;58.81;98344.47;10369064;28;20021;-61
2024/02/10 04:31:21;;;;;;;1.80;1.17;;;;;;;15.98;57.93;98347.13;10370759;28;20288;-60
2024/02/10 04:36:22;;;;;;;2.35;1.10;;;;;;;15.96;58.19;98350.16;10368358;28;20100;-61
2024/02/10 04:41:23;;;;;;;1.60;1.10;;;;;;;15.96;58.09;98354.72;10366244;28;20049;-61
2024/02/10 04:46:23;;;;;;;2.15;1.13;;;;;;;15.94;58.31;98348.94;10367434;28;20105;-61
2024/02/10 04:51:24;;;;;;;2.67;1.40;;;;;;;15.95;57.49;98353.16;10366639;28;20022;-61
2024/02/10 04:56:27;;;;;;;3.33;2.10;;;;;;;15.94;57.90;98351.59;10368131;28;20037;-61
2024/02/10 05:01:34;;;;;;;2.78;1.50;;;;;;;15.93;58.47;98342.03;10366961;28;20469;-61
2024/02/10 05:06:37;;;;;;;1.83;1.38;;;;;;;15.92;58.91;98351.94;10366936;28;20698;-60
2024/02/10 05:11:37;;;;;;;2.63;1.60;;;;;;;15.92;58.65;98359.97;10403386;28;20089;-61
2024/02/10 05:16:37;;;;;;;2.78;1.08;;;;;;;15.92;57.95;98361.84;10406182;28;20033;-61
2024/02/10 05:21:38;;;;;;;2.10;1.20;;;;;;;15.91;58.64;98361.06;10389745;28;20628;-61
2024/02/10 05:26:40;;;;;;;1.63;1.00;;;;;;;15.90;57.75;98364.88;10407971;28;20037;-60
2024/02/10 05:31:40;;;;;;;1.98;1.10;;;;;;;15.90;58.27;98370.22;10417450;28;20021;-61
2024/02/10 05:36:40;;;;;;;1.60;0.80;;;;;;;15.89;58.60;98365.97;10365970;28;20033;-61
2024/02/10 05:41:41;;;;;;;1.63;0.90;;;;;;;15.89;57.52;98374.00;10364211;28;20279;-61
2024/02/10 05:46:45;;;;;;;1.93;0.90;;;;;;;15.88;58.79;98363.63;10379367;28;20385;-61
2024/02/10 05:51:46;;;;;;;2.05;1.25;;;;;;;15.87;57.29;98373.56;10365043;28;20332;-62
2024/02/10 05:56:46;;;;;;;2.15;1.23;;;;;;;15.88;58.34;98374.34;10365234;28;20116;-61
2024/02/10 06:01:51;;;;;;;1.52;0.95;;;;;;;15.88;57.39;98377.00;10363718;28;20018;-62
2024/02/10 06:06:52;;;;;;;1.92;1.23;;;;;;;15.86;57.24;98379.22;10363487;28;20058;-61
2024/02/10 06:11:53;;;;;;;2.83;1.20;;;;;;;15.86;57.45;98387.22;10391268;28;20058;-60
2024/02/10 06:16:55;;;;;;;1.63;0.93;;;;;;;15.84;57.88;98390.22;10365347;28;20527;-62
2024/02/10 06:21:56;;;;;;;2.88;1.40;;;;;;;15.85;58.29;98396.34;10365214;28;20446;-61
2024/02/10 06:26:56;;;;;;;1.83;1.00;;;;;;;15.83;58.11;98396.69;10363349;28;20543;-61
2024/02/10 06:31:57;;;;;;;2.03;1.23;;;;;;;15.84;58.50;98410.84;10388675;28;20335;-62
2024/02/10 06:36:57;;;;;;;1.75;1.00;;;;;;;15.83;57.20;98417.28;10364599;28;20339;-62
2024/02/10 06:41:59;;;;;;;2.35;0.80;;;;;;;15.83;57.51;98417.28;10365144;28;20037;-62
2024/02/10 06:46:59;;;;;;;2.25;1.25;;;;;;;15.83;57.79;98422.63;10363932;28;20034;-62
2024/02/10 06:52:03;;;;;;;1.27;0.90;;;;;;;15.82;57.71;98432.53;10363341;28;20388;-61
2024/02/10 06:57:04;;;;;;;2.40;1.30;;;;;;;15.81;58.16;98428.31;10362730;28;20284;-62
2024/02/10 07:02:06;;;;;;;3.25;1.10;;;;;;;15.80;58.44;98442.78;10360524;28;20030;-61
2024/02/10 07:07:06;;;;;;;1.80;1.10;;;;;;;15.81;58.44;98440.91;10364024;28;20038;-62
2024/02/10 07:12:07;;;;;;;2.38;0.70;;;;;;;15.78;57.49;98453.81;10381934;28;20038;-61
2024/02/10 07:17:09;;;;;;;1.35;0.70;;;;;;;15.79;57.56;98460.72;10373122;28;20034;-61
2024/02/10 07:22:10;;;;;;;1.45;0.68;;;;;;;15.77;57.31;98457.59;10373310;28;20057;-62
2024/02/10 07:27:11;;;;;;;3.15;1.10;;;;;;;15.77;57.52;98462.16;10372673;28;20041;-62
2024/02/10 07:32:14;;;;;;;2.58;1.27;;;;;;;15.77;57.56;98462.16;10399188;28;20045;-61
2024/02/10 07:37:15;;;;;;;1.83;1.08;;;;;;;15.76;58.31;98466.72;10371002;28;20017;-61
2024/02/10 07:42:16;;;;;;;2.40;1.20;;;;;;;15.75;58.40;98453.69;10372610;28;20025;-62
2024/02/10 07:47:19;;;;;;;2.70;1.27;;;;;;;15.75;57.10;98459.03;10366356;28;20276;-62
2024/02/10 07:52:19;;;;;;;2.03;1.00;;;;;;;15.75;57.41;98470.50;10370994;28;20396;-61
2024/02/10 07:57:20;;;;;;;1.48;0.85;;;;;;;15.75;57.49;98481.19;10371581;28;20022;-61
2024/02/10 08:02:23;;;;;;;2.40;1.40;;;;;;;15.74;57.38;98482.28;10371633;28;20028;-62
2024/02/10 08:07:27;;;;;;;1.60;0.75;;;;;;;15.73;57.70;98487.97;10372148;28;20735;-62
2024/02/10 08:12:29;;;;;;;1.58;0.95;;;;;;;15.73;57.68;98490.63;10394607;28;20025;-62
2024/02/10 08:17:30;;;;;;;2.20;1.05;;;;;;;15.73;57.78;98499.44;10410442;28;20245;-61
2024/02/10 08:22:30;;;;;;;1.30;0.80;;;;;;;15.72;57.39;98495.19;10411626;28;20035;-63
2024/02/10 08:27:31;;;;;;;1.53;0.80;;;;;;;15.72;58.36;98492.53;10411211;28;20389;-61
2024/02/10 08:32:32;;;;;;;1.38;0.80;;;;;;;15.71;57.49;98495.53;10414438;28;20284;-62
2024/02/10 08:37:33;;;;;;;2.35;0.98;;;;;;;15.71;58.31;98487.50;10368590;28;20018;-62
2024/02/10 08:42:35;;;;;;;1.42;0.80;;;;;;;15.71;58.39;98498.19;10382340;28;20025;-62
2024/02/10 08:47:35;;;;;;;2.05;1.08;;;;;;;15.70;57.79;98505.44;10410761;28;20469;-62
2024/02/10 08:52:37;;;;;;;2.10;1.17;;;;;;;15.69;57.23;98503.88;10409344;28;20025;-61
2024/02/10 08:57:37;;;;;;;2.15;1.20;;;;;;;15.71;58.28;98523.03;10410180;28;20284;-62
2024/02/10 09:02:37;;;;;;;1.73;0.87;;;;;;;15.70;57.49;98518.78;10410457;28;20068;-62
2024/02/10 09:07:38;;;;;;;2.30;0.93;;;;;;;15.71;57.25;98522.25;10409173;28;20304;-62
2024/02/10 09:12:39;;;;;;;1.98;1.00;;;;;;;15.70;57.34;98520.69;10376375;28;20057;-60
2024/02/10 09:17:39;;;;;;;1.75;0.80;;;;;;;15.70;58.68;98529.47;10368383;28;20065;-62
2024/02/10 09:22:40;;;;;;;2.40;0.87;;;;;;;15.70;56.99;98526.81;10369174;28;20117;-62
2024/02/10 09:27:40;;;;;;;1.25;0.70;;;;;;;15.69;57.69;98525.25;10368055;28;20383;-62
2024/02/10 09:32:45;;;;;;;1.67;0.87;;;;;;;15.70;58.38;98526.81;10367408;28;20029;-62
2024/02/10 09:37:46;;;;;;;2.00;0.77;;;;;;;15.69;57.65;98532.47;10367777;28;20276;-62
2024/02/10 09:42:49;;;;;;;2.03;0.90;;;;;;;15.68;57.43;98529.03;10368037;28;20030;-62
2024/02/10 09:47:50;;;;;;;1.65;0.80;;;;;;;15.68;57.38;98546.94;10366278;28;20021;-62
2024/02/10 09:52:51;;;;;;;1.00;0.70;;;;;;;15.70;57.73;98550.06;10366554;28;20455;-62
2024/02/10 09:57:51;;;;;;;2.47;1.40;;;;;;;15.68;58.08;98550.41;10397356;28;20079;-62
2024/02/10 10:02:54;;;;;;;1.00;0.60;;;;;;;15.68;58.85;98547.72;10365948;28;20878;-61
2024/02/10 10:07:55;;;;;;;1.90;0.82;;;;;;;15.68;57.59;98538.94;10373638;28;20057;-61
2024/02/10 10:12:55;;;;;;;1.70;0.98;;;;;;;15.68;57.43;98538.94;10372003;28;20028;-62
2024/02/10 10:17:56;;;;;;;2.20;1.13;;;;;;;15.68;58.14;98549.63;10375582;28;20092;-61
2024/02/10 10:22:56;;;;;;;1.75;0.98;;;;;;;15.68;58.84;98547.72;10406472;28;20751;-61
2024/02/10 10:27:57;;;;;;;2.07;1.10;;;;;;;15.68;57.50;98552.28;10405993;28;20026;-62
2024/02/10 10:32:59;;;;;;;0.80;0.60;;;;;;;15.67;57.83;98546.16;10383552;28;20276;-61
2024/02/10 10:38:01;;;;;;;1.33;0.82;;;;;;;15.67;57.93;98548.84;10364799;28;20064;-61
2024/02/10 10:43:05;;;;;;;1.50;0.80;;;;;;;15.66;57.75;98544.63;10365575;28;20026;-62
2024/02/10 10:48:06;;;;;;;1.20;0.60;;;;;;;15.67;57.26;98526.69;10372311;28;20026;-61
2024/02/10 10:53:10;;;;;;;1.67;1.08;;;;;;;15.67;58.67;98540.84;10374339;28;20017;-62
2024/02/10 10:58:16;;;;;;;2.45;1.00;;;;;;;15.68;58.47;98545.06;10372662;28;20037;-62
2024/02/10 11:03:17;;;;;;;1.48;0.70;;;;;;;15.67;58.15;98540.84;10366821;28;20029;-62
2024/02/10 11:08:22;;;;;;;1.33;0.82;;;;;;;15.67;57.52;98537.38;10382114;28;20042;-62
2024/02/10 11:13:24;;;;;;;1.20;0.80;;;;;;;15.67;57.84;98540.84;10388337;28;20042;-61
2024/02/10 11:18:25;;;;;;;1.50;0.73;;;;;;;15.67;58.32;98529.38;10371476;28;20022;-62
2024/02/10 11:23:29;;;;;;;2.20;0.80;;;;;;;15.66;57.69;98528.59;10373021;28;20505;-61
2024/02/10 11:28:32;;;;;;;1.67;1.10;;;;;;;15.66;58.46;98525.91;10399333;28;20036;-61
2024/02/10 11:33:33;;;;;;;1.45;0.70;;;;;;;15.65;58.08;98524.34;10382344;28;20029;-61
2024/02/10 11:38:34;;;;;;;0.93;0.73;;;;;;;15.66;58.12;98528.59;10372572;28;20029;-62
2024/02/10 11:43:36;;;;;;;0.70;0.40;;;;;;;15.66;57.68;98515.22;10372693;28;20774;-62
2024/02/10 11:48:36;;;;;;;1.50;0.75;;;;;;;15.66;58.26;98517.91;10371793;28;20053;-62
2024/02/10 11:53:42;;;;;;;1.30;0.80;;;;;;;15.64;58.52;98506.78;10372063;28;20040;-62
2024/02/10 11:58:45;;;;;;;1.10;0.80;;;;;;;15.65;57.80;98508.31;10370148;28;20269;-61
2024/02/10 12:03:48;;;;;;;1.10;0.50;;;;;;;15.65;58.31;98502.97;10370365;28;20026;-62
2024/02/10 12:08:50;;;;;;;1.20;0.70;;;;;;;15.67;57.98;98506.09;10384963;28;20550;-61
2024/02/10 12:13:50;;;;;;;1.17;0.65;;;;;;;15.67;57.54;98506.09;10409180;28;20465;-62
2024/02/10 12:18:51;;;;;;;1.65;0.90;;;;;;;15.65;57.69;98500.31;10371045;28;20022;-62
2024/02/10 12:23:52;;;;;;;1.60;1.07;;;;;;;15.67;59.07;98498.09;10370043;28;20037;-62
2024/02/10 12:28:52;;;;;;;1.38;0.60;;;;;;;15.67;58.99;98505.31;10370674;28;20837;-62
2024/02/10 12:33:55;;;;;;;1.05;0.68;;;;;;;15.65;58.37;98494.19;10395925;28;20076;-61
2024/02/10 12:38:55;;;;;;;1.98;0.85;;;;;;;15.66;58.55;98493.06;10363273;28;20029;-62
2024/02/10 12:43:58;;;;;;;1.08;0.82;;;;;;;15.67;58.22;98497.31;10368879;28;20026;-62
2024/02/10 12:49:00;;;;;;;1.10;0.68;;;;;;;15.65;58.08;98492.28;10365576;28;20037;-62
2024/02/10 12:54:01;;;;;;;1.20;0.75;;;;;;;15.66;59.31;98496.53;10369749;28;20025;-62
2024/02/10 12:59:06;;;;;;;1.15;0.70;;;;;;;15.65;59.33;98496.88;10394734;28;20583;-62
2024/02/10 13:04:06;;;;;;;1.10;0.65;;;;;;;15.65;58.76;98489.63;10409132;28;20033;-62
2024/02/10 13:09:07;;;;;;;1.00;0.60;;;;;;;15.65;59.40;98491.53;10404064;28;20060;-62
2024/02/10 13:14:09;;;;;;;1.67;1.23;;;;;;;15.65;58.16;98505.66;10368911;28;20041;-62
2024/02/10 13:19:13;;;;;;;2.35;0.82;;;;;;;15.64;59.18;98496.09;10367340;28;20092;-62
2024/02/10 13:24:14;;;;;;;2.08;0.90;;;;;;;15.64;59.15;98506.78;10367686;28;20057;-62
2024/02/10 13:29:18;;;;;;;1.45;0.80;;;;;;;15.65;59.26;98499.53;10366924;28;20064;-61
2024/02/10 13:34:19;;;;;;;1.05;0.80;;;;;;;15.65;59.34;98504.88;10368624;28;20064;-62
2024/02/10 14:00:40;;;;;;;1.25;0.73;;;;;;;15.63;58.19;98491.84;10393767;28;20114;-62
2024/02/10 14:10:57;;;;;;;1.05;0.63;;;;;;;15.65;58.53;98488.84;10388473;28;20492;-62
2024/02/10 14:16:00;;;;;;;1.42;0.60;;;;;;;15.66;57.77;98498.41;10367072;28;20450;-61
2024/02/10 14:21:12;;;;;;;1.23;0.60;;;;;;;15.67;58.16;98505.31;10366570;28;20022;-62
2024/02/10 14:26:15;;;;;;;1.23;0.70;;;;;;;15.65;58.03;98497.63;10365914;28;20030;-61
2024/02/10 14:31:18;;;;;;;1.33;0.80;;;;;;;15.66;57.77;98496.53;10367815;28;20096;-62
2024/02/10 14:36:38;;;;;;;1.70;0.75;;;;;;;15.66;58.31;98493.84;10366562;28;20030;-61
2024/02/10 14:41:40;;;;;;;1.25;0.70;;;;;;;15.66;58.57;98498.41;10366480;28;20535;-61
2024/02/10 14:46:42;;;;;;;1.13;0.68;;;;;;;15.65;58.34;98486.97;10366956;28;20084;-62
2024/02/10 14:51:42;;;;;;;1.35;0.73;;;;;;;15.66;57.78;98499.19;10365044;28;20026;-62
2024/02/10 14:56:45;;;;;;;1.50;0.90;;;;;;;15.67;57.92;98503.44;10365203;28;20049;-61
2024/02/10 15:01:48;;;;;;;1.38;0.73;;;;;;;15.66;57.48;98501.09;10364478;28;20335;-62
2024/02/10 15:06:49;;;;;;;1.77;0.80;;;;;;;15.65;58.20;98505.66;10361980;28;20425;-61
2024/02/10 15:11:49;;;;;;;2.22;1.10;;;;;;;15.66;58.87;98490.41;10391998;28;20037;-62
2024/02/10 15:16:51;;;;;;;1.27;0.70;;;;;;;15.67;57.94;98495.41;10378085;28;20037;-62
2024/02/10 15:21:52;;;;;;;1.35;0.70;;;;;;;15.66;58.71;98496.53;10393631;28;20342;-62
2024/02/10 15:26:52;;;;;;;1.95;0.88;;;;;;;15.66;57.71;98495.75;10406754;28;20522;-62
2024/02/10 15:31:56;;;;;;;0.77;0.70;;;;;;;15.65;58.18;98489.63;10389239;28;20022;-62
2024/02/10 15:36:56;;;;;;;1.25;0.70;;;;;;;15.66;57.64;98506.44;10372602;28;20295;-62
2024/02/10 15:41:57;;;;;;;1.23;0.70;;;;;;;15.66;58.56;98506.44;10371457;28;20028;-62
2024/02/10 15:46:57;;;;;;;1.33;0.63;;;;;;;15.65;57.94;98511.00;10384774;28;20080;-62
2024/02/10 15:51:57;;;;;;;1.27;0.77;;;;;;;15.65;58.80;98507.53;10406656;28;20280;-62
2024/02/10 15:56:58;;;;;;;1.42;0.82;;;;;;;15.65;58.66;98507.53;10412665;28;20083;-62
2024/02/10 16:01:58;;;;;;;1.90;1.23;;;;;;;15.64;58.05;98508.66;10412848;28;20025;-61
2024/02/10 16:06:58;;;;;;;1.83;1.13;;;;;;;15.65;58.82;98512.88;10410932;28;20292;-62
2024/02/10 16:11:59;;;;;;;2.35;1.23;;;;;;;15.63;58.52;98510.56;10411892;28;20690;-61
2024/02/10 16:16:59;;;;;;;1.90;1.25;;;;;;;15.63;57.28;98515.13;10412343;28;20036;-63
2024/02/10 16:21:59;;;;;;;1.87;1.20;;;;;;;15.63;58.60;98510.56;10411580;28;20036;-61
2024/02/10 16:27:00;;;;;;;2.17;1.20;;;;;;;15.62;58.42;98510.84;10411788;28;20280;-61
2024/02/10 16:32:00;;;;;;;1.42;0.80;;;;;;;15.62;58.38;98503.63;10393375;28;20307;-61
2024/02/10 16:37:02;;;;;;;1.87;1.10;;;;;;;15.61;57.93;98498.59;10376610;28;20040;-62
2024/02/10 16:42:03;;;;;;;1.90;1.10;;;;;;;15.63;58.53;98504.44;10410886;28;20831;-61
2024/02/10 16:47:08;;;;;;;2.05;1.45;;;;;;;15.60;57.72;98495.16;10411136;28;20029;-61
2024/02/10 16:52:08;;;;;;;2.10;1.40;;;;;;;15.61;58.06;98495.94;10409413;28;20045;-61
2024/02/10 16:57:10;;;;;;;2.35;1.50;;;;;;;15.59;58.13;98496.25;10409461;28;20049;-62
2024/02/10 17:02:15;;;;;;;2.75;1.30;;;;;;;15.59;58.04;98493.56;10408826;28;20338;-62
2024/02/10 17:07:16;;;;;;;3.15;1.92;;;;;;;15.60;58.44;98491.72;10409101;28;20146;-62
2024/02/10 17:12:18;;;;;;;3.38;2.20;;;;;;;15.58;57.35;98486.66;10392699;28;20496;-61
2024/02/10 17:17:22;;;;;;;3.53;2.45;;;;;;;15.58;58.26;98493.91;10369210;28;20603;-62
2024/02/10 17:22:24;;;;;;;5.88;3.08;;;;;;;15.57;57.94;98498.47;10366220;28;20033;-62
2024/02/10 17:27:24;;;;;;;5.05;3.08;;;;;;;15.58;57.95;98493.91;10366686;28;20030;-62
2024/02/10 17:32:24;;;;;;;4.00;2.57;;;;;;;15.57;58.24;98495.00;10387501;28;20037;-62
2024/02/10 17:37:28;;;;;;;4.50;2.47;;;;;;;15.56;57.99;98501.47;10406866;28;20276;-62
2024/02/10 17:42:29;;;;;;;5.82;2.85;;;;;;;15.56;58.42;98496.91;10405344;28;20029;-62
2024/02/10 17:47:29;;;;;;;4.53;3.00;;;;;;;15.55;58.58;98498.03;10405879;28;20029;-62
2024/02/10 17:52:31;;;;;;;3.40;2.10;;;;;;;15.55;57.41;98511.38;10407097;28;20555;-61
2024/02/10 17:57:31;;;;;;;3.60;2.15;;;;;;;15.54;58.05;98522.38;10406078;28;20437;-62
2024/02/10 18:02:32;;;;;;;3.67;2.00;;;;;;;15.54;57.65;98515.16;10376112;28;20113;-62
2024/02/10 18:07:32;;;;;;;3.53;2.03;;;;;;;15.53;57.84;98512.81;10367557;28;20048;-62
2024/02/10 18:12:32;;;;;;;3.70;2.08;;;;;;;15.53;57.01;98518.16;10404396;28;20302;-62
2024/02/10 18:17:33;;;;;;;3.93;2.10;;;;;;;15.53;58.15;98510.16;10406083;28;20076;-62
2024/02/10 18:22:33;;;;;;;3.23;1.93;;;;;;;15.53;57.78;98521.59;10405838;28;20268;-62
2024/02/10 18:27:36;;;;;;;2.80;1.70;;;;;;;15.52;57.82;98521.94;10404402;28;20284;-62
2024/02/10 18:32:37;;;;;;;3.08;1.88;;;;;;;15.52;58.48;98519.28;10382879;28;20026;-61
2024/02/10 18:37:39;;;;;;;2.67;1.75;;;;;;;15.52;57.98;98516.59;10363761;28;20030;-62
2024/02/10 18:42:39;;;;;;;3.47;2.55;;;;;;;15.51;57.96;98523.84;10364779;28;20104;-62
2024/02/10 18:47:39;;;;;;;2.90;1.87;;;;;;;15.49;57.65;98532.16;10364485;28;20030;-62
2024/02/10 18:52:41;;;;;;;4.00;2.17;;;;;;;15.50;58.55;98533.69;10364504;28;20280;-61
2024/02/10 18:57:42;;;;;;;2.53;1.85;;;;;;;15.49;57.00;98534.81;10363285;28;20038;-62
2024/02/10 19:02:42;;;;;;;3.75;2.22;;;;;;;15.50;58.34;98536.38;10351755;28;20026;-61
2024/02/10 19:07:43;;;;;;;2.22;1.63;;;;;;;15.48;57.85;98532.47;10370500;28;20056;-62
2024/02/10 19:12:48;;;;;;;2.60;1.70;;;;;;;15.48;58.18;98535.94;10377860;28;20460;-61
2024/02/10 19:17:51;;;;;;;2.65;1.98;;;;;;;15.48;57.93;98533.25;10370516;28;20373;-62
2024/02/10 19:22:52;;;;;;;3.55;1.67;;;;;;;15.48;58.00;98533.25;10371086;28;20061;-62
2024/02/10 19:27:54;;;;;;;2.75;1.88;;;;;;;15.48;57.52;98543.94;10371329;28;20105;-61
2024/02/10 19:32:55;;;;;;;2.88;1.67;;;;;;;15.47;58.33;98534.38;10396663;28;20034;-59
2024/02/10 19:37:55;;;;;;;2.97;1.92;;;;;;;15.47;58.38;98526.34;10412084;28;20447;-62
2024/02/10 19:42:56;;;;;;;4.60;2.60;;;;;;;15.46;57.73;98530.13;10411524;28;20079;-61
2024/02/10 19:47:57;;;;;;;4.13;2.22;;;;;;;15.46;57.22;98526.69;10394311;28;20302;-61
2024/02/10 19:52:57;;;;;;;4.03;2.67;;;;;;;15.46;57.59;98534.69;10368485;28;20021;-62
2024/02/10 19:57:58;;;;;;;3.08;2.20;;;;;;;15.46;58.29;98532.03;10368631;28;20073;-61
2024/02/10 20:02:59;;;;;;;3.85;2.42;;;;;;;15.45;58.19;98539.25;10368704;28;20442;-62
2024/02/10 20:08:00;;;;;;;3.55;2.38;;;;;;;15.45;57.58;98546.50;10377133;28;20045;-62
2024/02/10 20:13:04;;;;;;;4.97;2.60;;;;;;;15.45;57.75;98554.50;10410239;28;20048;-61
2024/02/10 20:18:05;;;;;;;3.95;2.30;;;;;;;15.45;58.12;98551.84;10408355;28;20059;-61
2024/02/10 20:23:05;;;;;;;3.28;1.80;;;;;;;15.44;57.24;98553.72;10409848;28;20117;-61
2024/02/10 20:28:09;;;;;;;2.97;2.10;;;;;;;15.44;57.06;98555.63;10353533;28;20514;-62
2024/02/10 20:33:10;;;;;;;3.10;2.05;;;;;;;15.43;57.10;98544.16;10368512;28;20288;-61
2024/02/10 20:38:10;;;;;;;3.17;1.90;;;;;;;15.44;58.03;98555.63;10368533;28;20026;-61
2024/02/10 20:43:10;;;;;;;3.80;2.23;;;;;;;15.42;56.93;98553.28;10368241;28;20045;-62
2024/02/10 20:48:12;;;;;;;2.67;1.83;;;;;;;15.42;57.56;98539.13;10368084;28;20872;-61
2024/02/10 20:53:12;;;;;;;3.20;2.20;;;;;;;15.42;57.70;98539.13;10382087;28;20276;-61
2024/02/10 20:58:16;;;;;;;3.07;2.17;;;;;;;15.42;58.18;98547.16;10387065;28;20018;-61
2024/02/10 21:03:20;;;;;;;3.03;2.00;;;;;;;15.41;57.47;98545.59;10407146;28;20282;-61
2024/02/10 21:08:22;;;;;;;2.30;1.50;;;;;;;15.40;58.17;98544.81;10407513;28;20514;-62
2024/02/10 21:13:22;;;;;;;3.47;1.80;;;;;;;15.40;57.21;98549.38;10408075;28;20469;-61
2024/02/10 21:18:24;;;;;;;3.40;2.17;;;;;;;15.39;57.95;98545.91;10406158;28;20037;-61
2024/02/10 21:23:25;;;;;;;3.20;2.10;;;;;;;15.39;57.55;98551.25;10406318;28;20362;-62
2024/02/10 21:28:25;;;;;;;2.83;2.15;;;;;;;15.39;58.01;98537.91;10406352;28;20027;-60
2024/02/10 21:33:31;;;;;;;3.33;2.20;;;;;;;15.39;58.17;98539.78;10376693;28;20129;-61
2024/02/10 21:38:31;;;;;;;3.50;2.28;;;;;;;15.38;57.68;98547.00;10383805;28;20034;-62
2024/02/10 21:43:34;;;;;;;2.97;2.07;;;;;;;15.39;58.03;98542.44;10405756;28;20349;-62
2024/02/10 21:48:35;;;;;;;2.55;1.88;;;;;;;15.37;57.73;98529.41;10405182;28;20698;-62
2024/02/10 21:53:35;;;;;;;2.70;1.67;;;;;;;15.37;57.81;98537.44;10406422;28;20079;-61
2024/02/10 21:58:37;;;;;;;3.17;2.13;;;;;;;15.38;58.16;98527.53;10406656;28;20024;-62
2024/02/10 22:03:37;;;;;;;2.70;1.85;;;;;;;15.37;57.71;98533.97;10406222;28;20284;-61
2024/02/10 22:08:38;;;;;;;3.80;2.13;;;;;;;15.36;57.22;98525.19;10405908;28;20049;-61
2024/02/10 22:13:38;;;;;;;3.22;2.13;;;;;;;15.34;57.26;98524.75;10379288;28;20285;-62
2024/02/10 22:18:41;;;;;;;3.88;2.08;;;;;;;15.35;56.99;98509.50;10363894;28;20025;-61
2024/02/10 22:23:42;;;;;;;2.78;1.83;;;;;;;15.35;57.22;98507.59;10377146;28;20567;-62
2024/02/10 22:28:42;;;;;;;2.97;1.85;;;;;;;15.35;57.90;98504.16;10364738;28;20116;-62
2024/02/10 22:33:43;;;;;;;3.03;1.98;;;;;;;15.35;57.92;98506.84;10363916;28;20180;-62
2024/02/10 22:38:43;;;;;;;2.92;2.10;;;;;;;15.34;58.29;98511.38;10363248;28;20026;-62
2024/02/10 22:43:44;;;;;;;3.63;1.83;;;;;;;15.34;57.91;98513.28;10369896;28;20504;-61
2024/02/10 22:48:44;;;;;;;2.60;1.95;;;;;;;15.32;57.52;98502.94;10370924;28;20567;-62
2024/02/10 22:53:44;;;;;;;3.00;2.10;;;;;;;15.33;57.12;98498.38;10372824;28;20030;-62
2024/02/10 22:58:45;;;;;;;2.95;1.70;;;;;;;15.33;57.17;98501.03;10372850;28;20688;-61
2024/02/10 23:03:45;;;;;;;3.00;2.25;;;;;;;15.31;58.61;98488.03;10371029;28;20401;-62
2024/02/10 23:08:49;;;;;;;2.50;1.67;;;;;;;15.32;57.29;98488.81;10383426;28;20099;-61
2024/02/10 23:13:49;;;;;;;2.60;1.55;;;;;;;15.31;57.36;98481.91;10371788;28;20644;-62
2024/02/10 23:18:50;;;;;;;2.80;1.97;;;;;;;15.31;57.75;98488.03;10372025;28;20018;-62
2024/02/10 23:23:53;;;;;;;2.35;1.70;;;;;;;15.31;58.09;98493.38;10370650;28;20272;-62
2024/02/10 23:28:53;;;;;;;3.63;2.13;;;;;;;15.31;57.83;98487.25;10369593;28;20033;-62
2024/02/10 23:33:53;;;;;;;2.67;2.03;;;;;;;15.30;57.15;98483.00;10371302;28;20030;-62
2024/02/10 23:38:59;;;;;;;3.45;2.10;;;;;;;15.29;58.07;98478.78;10369642;28;20276;-62
2024/02/10 23:43:59;;;;;;;4.57;2.30;;;;;;;15.29;58.38;98479.56;10370938;28;20426;-62
2024/02/10 23:48:59;;;;;;;3.30;2.00;;;;;;;15.28;57.29;98475.34;10369966;28;20025;-62